Time;durP1;ratioP1;P1;durP2;ratioP2;P2;SDS_P1;SDS_P2;PMS_P1;PMS_P2;Temp;Humidity;BMP_temperature;BMP_pressure;BME280_temperature;BME280_humidity;BME280_pressure;Samples;Min_cycle;Max_cycle;Signal;HPM_P1;HPM_P2
2022/03/04 00:00:18;;;;;;;21.27;15.97;;;;;;;6.86;57.31;99352.75;5094849;28;20202;-66
2022/03/04 00:02:45;;;;;;;28.67;15.83;;;;;;;6.83;57.79;99346.00;5094765;28;20251;-66
2022/03/04 00:05:12;;;;;;;34.53;18.10;;;;;;;6.76;58.66;99342.41;5094803;28;20278;-66
2022/03/04 00:07:40;;;;;;;39.03;17.90;;;;;;;6.63;58.79;99349.25;5094783;28;20220;-66
2022/03/04 00:10:07;;;;;;;29.27;17.10;;;;;;;6.59;58.92;99340.03;5095254;28;20195;-66
2022/03/04 00:12:34;;;;;;;25.33;16.97;;;;;;;6.55;59.02;99336.09;5095741;28;20209;-66
2022/03/04 00:15:00;;;;;;;26.87;18.27;;;;;;;6.48;60.36;99343.06;5095173;28;20191;-66
2022/03/04 00:17:27;;;;;;;37.03;16.17;;;;;;;6.38;60.76;99334.56;5094544;28;20200;-66
2022/03/04 00:19:54;;;;;;;35.90;16.87;;;;;;;6.29;60.82;99335.59;5094825;28;20253;-67
2022/03/04 00:22:21;;;;;;;26.17;16.43;;;;;;;6.26;60.71;99333.31;5095285;28;20624;-67
2022/03/04 00:24:49;;;;;;;33.00;18.13;;;;;;;6.16;60.77;99337.97;5094279;28;20226;-66
2022/03/04 00:27:16;;;;;;;31.60;19.27;;;;;;;6.12;60.61;99334.03;5094851;28;20403;-66
2022/03/04 00:29:43;;;;;;;28.57;18.47;;;;;;;6.01;60.08;99337.03;5094248;28;20652;-66
2022/03/04 00:32:09;;;;;;;19.47;13.57;;;;;;;5.87;59.08;99329.88;5094443;28;20191;-67
2022/03/04 00:34:38;;;;;;;19.70;13.83;;;;;;;5.82;57.93;99340.06;5094260;28;20706;-67
2022/03/04 00:37:05;;;;;;;18.60;14.83;;;;;;;5.75;57.81;99340.72;5094009;28;20202;-70
2022/03/04 00:39:32;;;;;;;17.37;14.67;;;;;;;5.69;58.40;99341.38;5093985;28;20248;-68
2022/03/04 00:42:00;;;;;;;20.50;13.60;;;;;;;5.66;59.59;99335.66;5093729;28;20264;-67
2022/03/04 00:44:27;;;;;;;17.67;14.03;;;;;;;5.73;59.84;99341.91;5094613;28;20196;-67
2022/03/04 00:46:53;;;;;;;19.90;15.77;;;;;;;5.78;59.45;99339.56;5093823;28;20272;-66
2022/03/04 00:49:20;;;;;;;22.10;14.73;;;;;;;5.85;59.42;99351.13;5094287;28;20196;-67
2022/03/04 00:51:47;;;;;;;25.40;15.00;;;;;;;5.89;59.38;99346.31;5094167;28;20266;-66
2022/03/04 00:54:13;;;;;;;18.63;15.90;;;;;;;5.89;59.66;99348.94;5093839;28;20192;-67
2022/03/04 00:56:40;;;;;;;24.27;17.33;;;;;;;5.91;59.90;99345.16;5093793;28;20666;-67
2022/03/04 00:59:09;;;;;;;23.03;17.17;;;;;;;5.91;60.77;99341.72;5094000;28;20270;-67
2022/03/04 01:01:35;;;;;;;24.93;14.93;;;;;;;5.92;61.38;99340.72;5094230;28;20628;-67
2022/03/04 01:04:02;;;;;;;21.90;15.93;;;;;;;5.92;60.74;99340.72;5093958;28;20620;-67
2022/03/04 01:06:29;;;;;;;23.20;18.70;;;;;;;5.90;61.38;99332.97;5093708;28;20214;-67
2022/03/04 01:08:55;;;;;;;27.23;18.50;;;;;;;5.87;62.38;99328.03;5093508;28;20236;-66
2022/03/04 01:11:22;;;;;;;30.63;20.30;;;;;;;5.95;62.81;99329.84;5093687;28;20194;-69
2022/03/04 01:13:49;;;;;;;38.50;20.60;;;;;;;5.87;63.91;99316.69;5093331;28;20641;-67
2022/03/04 01:16:17;;;;;;;33.70;20.10;;;;;;;5.83;64.37;99320.66;5092568;28;20280;-67
2022/03/04 01:18:44;;;;;;;26.33;18.70;;;;;;;5.84;64.98;99320.47;5093299;28;20191;-66
2022/03/04 01:21:10;;;;;;;24.63;18.50;;;;;;;5.84;64.12;99317.03;5093848;28;20187;-67
2022/03/04 01:23:37;;;;;;;23.67;18.17;;;;;;;5.77;64.20;99312.38;5094330;28;20195;-66
2022/03/04 01:26:04;;;;;;;35.90;18.33;;;;;;;5.76;64.23;99316.00;5093048;28;20683;-67
2022/03/04 01:28:31;;;;;;;24.67;19.93;;;;;;;5.75;65.21;99319.66;5092840;28;20276;-67
2022/03/04 01:30:58;;;;;;;27.40;20.37;;;;;;;5.71;65.50;99313.06;5093672;28;20195;-67
2022/03/04 01:33:26;;;;;;;30.67;22.70;;;;;;;5.61;65.93;99316.91;5093067;28;20662;-68
2022/03/04 01:35:53;;;;;;;28.30;20.70;;;;;;;5.45;66.04;99309.88;5093058;28;20253;-67
2022/03/04 01:38:19;;;;;;;31.23;21.00;;;;;;;5.41;67.07;99311.19;5093552;28;20203;-67
2022/03/04 01:40:46;;;;;;;28.90;19.87;;;;;;;5.39;66.88;99318.41;5094056;28;20249;-67
2022/03/04 01:43:13;;;;;;;33.83;20.53;;;;;;;5.29;67.03;99312.53;5093152;28;20276;-67
2022/03/04 01:45:40;;;;;;;29.90;20.57;;;;;;;5.20;67.82;99300.34;5092757;28;20728;-68
2022/03/04 01:48:07;;;;;;;38.13;20.87;;;;;;;5.12;67.52;99300.38;5093182;28;20276;-68
2022/03/04 01:50:36;;;;;;;33.10;20.93;;;;;;;4.98;68.19;99298.38;5092777;28;20235;-68
2022/03/04 01:53:02;;;;;;;34.07;19.83;;;;;;;4.80;68.38;99294.28;5092677;28;20188;-68
2022/03/04 01:55:30;;;;;;;35.53;20.37;;;;;;;4.77;68.74;99297.22;5093778;28;20191;-67
2022/03/04 01:57:56;;;;;;;31.27;20.40;;;;;;;4.67;69.05;99281.63;5093069;28;20248;-68
2022/03/04 02:00:23;;;;;;;29.73;19.57;;;;;;;4.74;68.67;99292.31;5092465;28;20224;-67
2022/03/04 02:02:50;;;;;;;29.90;19.67;;;;;;;4.74;68.65;99284.44;5092527;28;20195;-67
2022/03/04 02:05:19;;;;;;;29.17;19.13;;;;;;;4.71;69.28;99285.56;5093535;28;20248;-67
2022/03/04 02:07:47;;;;;;;27.13;19.20;;;;;;;4.72;69.88;99276.69;5092624;28;20293;-67
2022/03/04 02:10:14;;;;;;;28.63;20.23;;;;;;;4.70;68.81;99283.13;5093046;28;20195;-67
2022/03/04 02:12:41;;;;;;;31.33;20.17;;;;;;;4.65;69.19;99286.22;5091935;28;20195;-67
2022/03/04 02:15:09;;;;;;;31.13;19.53;;;;;;;4.54;69.44;99281.28;5092353;28;20224;-67
2022/03/04 02:17:36;;;;;;;27.03;19.63;;;;;;;4.46;69.54;99283.88;5092264;28;20654;-67
2022/03/04 02:20:04;;;;;;;40.33;20.93;;;;;;;4.34;70.63;99281.75;5092822;28;20187;-67
2022/03/04 02:22:32;;;;;;;28.87;19.67;;;;;;;4.20;71.30;99279.72;5092315;28;20260;-67
2022/03/04 02:25:00;;;;;;;34.67;21.53;;;;;;;4.17;71.45;99278.25;5092082;28;20555;-67
2022/03/04 02:27:27;;;;;;;37.37;22.50;;;;;;;4.16;71.19;99287.13;5092339;28;20215;-67
2022/03/04 02:29:54;;;;;;;36.83;22.70;;;;;;;4.11;72.14;99275.44;5092470;28;20198;-67
2022/03/04 02:32:20;;;;;;;35.43;22.40;;;;;;;4.13;71.85;99276.94;5092016;28;20728;-67
2022/03/04 02:34:47;;;;;;;30.90;22.93;;;;;;;4.14;72.09;99281.22;5092603;28;20187;-68
2022/03/04 02:37:15;;;;;;;36.73;21.87;;;;;;;4.18;72.36;99277.28;5092036;28;20742;-67
2022/03/04 02:39:43;;;;;;;44.50;24.07;;;;;;;4.08;72.44;99276.59;5092000;28;20191;-68
2022/03/04 02:42:10;;;;;;;39.47;22.93;;;;;;;4.08;72.35;99286.28;5092551;28;20275;-67
2022/03/04 02:44:37;;;;;;;41.37;24.07;;;;;;;4.06;72.59;99275.94;5093141;28;20186;-68
2022/03/04 02:47:04;;;;;;;37.73;22.43;;;;;;;4.02;72.25;99289.56;5092015;28;20223;-68
2022/03/04 02:49:31;;;;;;;38.33;22.23;;;;;;;3.89;72.56;99282.09;5091880;28;20191;-67
2022/03/04 02:51:57;;;;;;;40.03;23.30;;;;;;;3.72;72.78;99275.16;5091837;28;21020;-67
2022/03/04 02:54:24;;;;;;;31.73;22.17;;;;;;;3.70;72.72;99277.13;5092946;28;20239;-67
2022/03/04 02:56:52;;;;;;;37.50;22.13;;;;;;;3.77;72.65;99283.41;5091846;28;20255;-68
2022/03/04 02:59:19;;;;;;;31.53;20.97;;;;;;;3.84;72.82;99281.78;5092143;28;20252;-67
2022/03/04 03:01:45;;;;;;;33.83;21.97;;;;;;;3.89;73.16;99292.63;5091771;28;20191;-67
2022/03/04 03:04:12;;;;;;;34.97;22.17;;;;;;;3.93;72.73;99299.19;5092024;28;20568;-67
2022/03/04 03:06:39;;;;;;;31.33;20.97;;;;;;;3.89;72.16;99300.50;5092049;28;20195;-67
2022/03/04 03:09:05;;;;;;;31.83;21.87;;;;;;;3.80;72.88;99298.03;5091585;28;20698;-67
2022/03/04 03:11:32;;;;;;;34.37;21.83;;;;;;;3.79;73.95;99305.06;5091936;28;20517;-67
2022/03/04 03:14:00;;;;;;;38.20;21.60;;;;;;;3.83;74.00;99302.94;5091968;28;20256;-68
2022/03/04 03:16:27;;;;;;;30.83;21.60;;;;;;;3.86;73.95;99305.25;5091523;28;20659;-67
2022/03/04 03:18:54;;;;;;;32.83;22.20;;;;;;;3.89;73.87;99297.88;5091870;28;20195;-67
2022/03/04 03:21:20;;;;;;;32.00;21.07;;;;;;;3.81;75.20;99305.75;5091944;28;20195;-68
2022/03/04 03:23:47;;;;;;;31.70;20.13;;;;;;;3.80;75.47;99308.53;5092135;28;20191;-67
2022/03/04 03:26:14;;;;;;;25.40;17.50;;;;;;;3.77;74.54;99314.94;5094513;28;20190;-67
2022/03/04 03:28:41;;;;;;;22.33;17.40;;;;;;;3.65;74.68;99313.56;5095236;28;20264;-67
2022/03/04 03:31:09;;;;;;;24.03;18.13;;;;;;;3.59;74.69;99321.22;5096042;28;20191;-68
2022/03/04 03:33:37;;;;;;;20.90;17.53;;;;;;;3.53;75.70;99308.72;5095382;28;20674;-67
2022/03/04 03:36:04;;;;;;;25.40;19.03;;;;;;;3.59;75.53;99316.78;5095346;28;20191;-68
2022/03/04 03:38:31;;;;;;;24.10;17.07;;;;;;;3.55;75.17;99312.81;5095137;28;20441;-68
2022/03/04 03:40:58;;;;;;;24.60;18.77;;;;;;;3.52;75.42;99326.25;5095191;28;20569;-67
2022/03/04 03:43:24;;;;;;;27.50;17.93;;;;;;;3.50;76.43;99325.59;5095721;28;20280;-67
2022/03/04 03:45:51;;;;;;;23.83;17.47;;;;;;;3.51;75.59;99323.81;5095499;28;20191;-67
2022/03/04 03:48:19;;;;;;;29.50;18.73;;;;;;;3.51;76.37;99315.94;5094990;28;20276;-67
2022/03/04 03:50:46;;;;;;;25.90;18.33;;;;;;;3.50;76.11;99317.72;5095389;28;20191;-67
2022/03/04 03:53:12;;;;;;;25.63;18.70;;;;;;;3.49;76.09;99323.13;5095320;28;20195;-67
2022/03/04 03:55:39;;;;;;;25.80;18.37;;;;;;;3.43;75.59;99316.69;5095358;28;20440;-67
2022/03/04 03:58:06;;;;;;;23.63;18.63;;;;;;;3.49;75.59;99310.84;5095530;28;20437;-67
2022/03/04 04:00:34;;;;;;;25.70;18.50;;;;;;;3.52;75.58;99315.75;5095905;28;20244;-67
2022/03/04 04:03:01;;;;;;;30.13;19.27;;;;;;;3.49;76.07;99326.59;5094805;28;20274;-67
2022/03/04 04:05:29;;;;;;;24.47;18.30;;;;;;;3.37;75.16;99322.56;5094647;28;20870;-67
2022/03/04 04:07:56;;;;;;;27.30;19.17;;;;;;;3.19;75.72;99318.34;5094858;28;20219;-68
2022/03/04 04:10:24;;;;;;;25.70;19.40;;;;;;;3.04;76.77;99314.63;5095825;28;20195;-68
2022/03/04 04:12:50;;;;;;;33.10;20.17;;;;;;;2.94;77.79;99324.41;5094602;28;20443;-68
2022/03/04 04:15:17;;;;;;;30.27;19.53;;;;;;;2.90;79.15;99329.09;5094914;28;20191;-68
2022/03/04 04:17:44;;;;;;;27.20;19.00;;;;;;;2.89;79.41;99322.22;5094483;28;20198;-68
2022/03/04 04:20:11;;;;;;;24.40;18.93;;;;;;;2.79;79.24;99326.75;5094493;28;20944;-68
2022/03/04 04:22:40;;;;;;;22.53;18.10;;;;;;;2.80;79.62;99328.38;5094614;28;20437;-67
2022/03/04 04:25:08;;;;;;;27.40;17.87;;;;;;;2.78;78.98;99317.19;5094365;28;20255;-67
2022/03/04 04:27:35;;;;;;;22.53;17.87;;;;;;;2.86;78.75;99314.66;5094202;28;20218;-67
2022/03/04 04:30:02;;;;;;;27.80;20.40;;;;;;;2.86;79.12;99321.72;5095440;28;20858;-68
2022/03/04 04:32:28;;;;;;;34.57;21.93;;;;;;;2.89;79.28;99332.72;5094781;28;20889;-68
2022/03/04 04:34:55;;;;;;;34.10;23.50;;;;;;;2.80;78.29;99325.75;5095012;28;20502;-68
2022/03/04 04:37:22;;;;;;;40.03;25.83;;;;;;;2.72;79.73;99320.44;5094170;28;20195;-68
2022/03/04 04:39:50;;;;;;;37.53;26.43;;;;;;;2.71;79.52;99324.06;5094036;28;20467;-68
2022/03/04 04:42:17;;;;;;;39.63;25.70;;;;;;;2.65;79.18;99327.25;5094018;28;20983;-67
2022/03/04 04:44:43;;;;;;;38.73;24.33;;;;;;;2.53;80.09;99317.16;5094621;28;20429;-68
2022/03/04 04:47:12;;;;;;;30.80;22.60;;;;;;;2.59;80.34;99325.25;5094926;28;20445;-68
2022/03/04 04:49:39;;;;;;;34.33;24.37;;;;;;;2.57;80.48;99332.41;5094165;28;20223;-67
2022/03/04 04:52:07;;;;;;;31.27;23.60;;;;;;;2.51;80.43;99342.69;5093812;28;20502;-67
2022/03/04 04:54:35;;;;;;;52.03;23.17;;;;;;;2.49;80.58;99334.97;5094151;28;20437;-67
2022/03/04 04:57:04;;;;;;;31.03;21.13;;;;;;;2.29;80.41;99328.19;5094512;28;20503;-67
2022/03/04 04:59:30;;;;;;;34.67;21.13;;;;;;;2.25;81.28;99332.09;5093731;28;20444;-67
2022/03/04 05:01:57;;;;;;;28.90;21.03;;;;;;;2.26;80.99;99332.94;5094040;28;20441;-67
2022/03/04 05:04:24;;;;;;;34.47;22.17;;;;;;;2.25;80.19;99326.84;5093964;28;20441;-66
2022/03/04 05:06:50;;;;;;;37.90;26.80;;;;;;;2.22;81.33;99327.16;5093587;28;20480;-67
2022/03/04 05:09:17;;;;;;;72.73;42.23;;;;;;;2.25;81.24;99332.09;5093342;28;20995;-65
2022/03/04 05:11:44;;;;;;;48.77;30.07;;;;;;;2.25;81.40;99329.47;5093564;28;20936;-67
2022/03/04 05:14:12;;;;;;;57.00;23.23;;;;;;;2.14;81.44;99340.19;5093786;28;20548;-67
2022/03/04 05:16:39;;;;;;;38.17;23.57;;;;;;;2.15;81.04;99341.81;5093783;28;20433;-67
2022/03/04 05:19:06;;;;;;;36.50;22.30;;;;;;;2.12;81.84;99342.09;5093676;28;20505;-67
2022/03/04 05:21:33;;;;;;;33.53;22.43;;;;;;;2.24;81.53;99338.31;5093529;28;20449;-67
2022/03/04 05:23:59;;;;;;;38.43;21.03;;;;;;;2.28;81.22;99344.91;5093187;28;20806;-68
2022/03/04 05:26:26;;;;;;;47.97;23.90;;;;;;;2.32;81.68;99353.31;5093520;28;20441;-67
2022/03/04 05:28:53;;;;;;;32.37;21.27;;;;;;;2.26;81.30;99359.97;5093554;28;20525;-66
2022/03/04 05:31:21;;;;;;;39.40;23.53;;;;;;;2.28;82.27;99355.38;5093415;28;20494;-69
2022/03/04 05:33:48;;;;;;;33.03;21.57;;;;;;;2.51;81.46;99359.25;5093408;28;20441;-67
2022/03/04 05:36:15;;;;;;;41.47;22.50;;;;;;;2.54;80.76;99364.19;5092861;28;20438;-66
2022/03/04 05:38:41;;;;;;;31.27;19.70;;;;;;;2.73;79.52;99369.28;5093223;28;20531;-66
2022/03/04 05:41:08;;;;;;;33.67;18.53;;;;;;;2.92;79.18;99360.44;5093270;28;20441;-67
2022/03/04 05:43:35;;;;;;;27.70;18.93;;;;;;;3.14;78.46;99366.03;5093240;28;20480;-67
2022/03/04 05:46:02;;;;;;;37.43;21.70;;;;;;;3.23;77.13;99367.75;5093088;28;20514;-67
2022/03/04 05:48:30;;;;;;;44.73;27.57;;;;;;;3.38;77.81;99368.84;5092683;28;20484;-68
2022/03/04 05:50:57;;;;;;;35.03;24.83;;;;;;;3.58;75.81;99367.66;5092401;28;20433;-66
2022/03/04 05:53:23;;;;;;;38.03;25.23;;;;;;;3.77;75.34;99370.09;5093202;28;20879;-67
2022/03/04 05:55:50;;;;;;;35.63;24.23;;;;;;;3.91;74.20;99376.53;5092602;28;20195;-67
2022/03/04 05:58:17;;;;;;;38.67;20.47;;;;;;;4.04;73.92;99375.13;5092804;28;20441;-67
2022/03/04 06:00:44;;;;;;;27.47;18.33;;;;;;;4.17;73.17;99380.75;5092332;28;20191;-67
2022/03/04 06:03:10;;;;;;;35.03;17.67;;;;;;;4.22;72.37;99382.94;5090608;28;20883;-69
2022/03/04 06:05:39;;;;;;;27.13;16.83;;;;;;;4.20;72.58;99390.13;5092466;28;20195;-66
2022/03/04 06:08:06;;;;;;;28.93;18.27;;;;;;;4.14;71.47;99381.09;5092211;28;20218;-69
2022/03/04 06:10:32;;;;;;;33.07;19.57;;;;;;;4.26;72.22;99377.19;5091881;28;20249;-68
2022/03/04 06:12:59;;;;;;;40.03;21.20;;;;;;;4.38;70.83;99383.78;5091011;28;20256;-65
2022/03/04 06:15:26;;;;;;;26.97;19.70;;;;;;;4.42;71.14;99390.38;5091933;28;20188;-65
2022/03/04 06:17:53;;;;;;;34.27;19.00;;;;;;;4.38;70.85;99389.06;5091520;28;20639;-64
2022/03/04 06:20:20;;;;;;;27.27;17.80;;;;;;;4.42;71.17;99389.56;5092615;28;20195;-64
2022/03/04 06:22:49;;;;;;;30.40;16.97;;;;;;;4.58;69.72;99385.16;5091055;28;20196;-63
2022/03/04 06:25:15;;;;;;;55.67;20.73;;;;;;;4.69;69.76;99389.28;5081379;28;20655;-63
2022/03/04 06:27:53;;;;;;;83.87;34.83;;;;;;;4.67;69.72;99384.22;5081378;28;20244;-63
2022/03/04 06:30:20;;;;;;;69.50;32.03;;;;;;;4.76;69.66;99390.31;5093346;28;20195;-65
2022/03/04 06:32:46;;;;;;;44.97;21.73;;;;;;;4.82;68.94;99395.75;5086265;28;20195;-65
2022/03/04 06:35:13;;;;;;;32.13;19.87;;;;;;;5.03;68.63;99387.41;5092361;28;20203;-66
2022/03/04 06:37:40;;;;;;;25.10;15.80;;;;;;;5.32;67.82;99388.53;5092221;28;20199;-68
2022/03/04 06:40:09;;;;;;;32.87;16.17;;;;;;;5.54;66.30;99395.78;5089231;28;20203;-65
2022/03/04 06:42:36;;;;;;;36.67;16.17;;;;;;;5.64;66.12;99396.41;5091485;28;20273;-65
2022/03/04 06:45:03;;;;;;;27.67;15.37;;;;;;;5.78;64.96;99394.91;5092318;28;20191;-64
2022/03/04 06:47:30;;;;;;;32.03;18.23;;;;;;;5.83;65.46;99395.25;5091250;28;20199;-64
2022/03/04 06:49:57;;;;;;;28.97;16.63;;;;;;;5.95;64.42;99395.72;5092073;28;20219;-63
2022/03/04 06:52:24;;;;;;;20.53;14.27;;;;;;;6.13;62.86;99401.59;5092170;28;20248;-63
2022/03/04 06:54:51;;;;;;;19.73;15.83;;;;;;;6.11;63.23;99398.28;5090508;28;20256;-64
2022/03/04 06:57:19;;;;;;;22.13;15.10;;;;;;;6.28;62.30;99400.72;5084600;28;20322;-63
2022/03/04 06:59:46;;;;;;;28.73;17.13;;;;;;;6.33;61.23;99405.47;5074726;28;20551;-63
2022/03/04 07:02:13;;;;;;;30.27;17.37;;;;;;;6.25;60.90;99411.59;5075841;28;20273;-63
2022/03/04 07:04:40;;;;;;;30.80;15.63;;;;;;;6.32;61.28;99401.22;5074333;28;20580;-65
2022/03/04 07:07:07;;;;;;;31.33;16.07;;;;;;;6.36;60.71;99408.59;5088636;28;20188;-64
2022/03/04 07:09:33;;;;;;;37.73;16.57;;;;;;;6.25;61.16;99408.94;5095209;28;20308;-64
2022/03/04 07:12:00;;;;;;;19.30;15.27;;;;;;;6.14;61.12;99403.22;5095465;28;20194;-64
2022/03/04 07:14:28;;;;;;;22.20;15.40;;;;;;;6.01;62.56;99397.69;5096043;28;20191;-64
2022/03/04 07:16:55;;;;;;;25.33;16.37;;;;;;;6.06;62.29;99403.25;5096703;28;20204;-64
2022/03/04 07:19:22;;;;;;;33.73;17.63;;;;;;;6.11;63.00;99396.50;5095599;28;20257;-64
2022/03/04 07:21:48;;;;;;;36.70;17.50;;;;;;;6.36;61.35;99402.50;5095596;28;20577;-63
2022/03/04 07:24:15;;;;;;;53.53;19.77;;;;;;;6.30;60.56;99403.19;5095844;28;20194;-63
2022/03/04 07:26:42;;;;;;;214.30;30.60;;;;;;;6.38;60.26;99401.34;5095883;28;20196;-63
2022/03/04 07:29:09;;;;;;;162.83;27.53;;;;;;;6.32;61.07;99403.84;5095655;28;20301;-64
2022/03/04 07:31:37;;;;;;;56.70;18.93;;;;;;;6.37;60.74;99393.59;5087841;28;20200;-63
2022/03/04 07:34:03;;;;;;;42.93;17.87;;;;;;;6.35;60.89;99403.47;5075260;28;20194;-64
2022/03/04 07:36:30;;;;;;;44.77;17.00;;;;;;;6.41;61.83;99400.16;5075099;28;20266;-63
2022/03/04 07:38:57;;;;;;;26.43;15.83;;;;;;;6.58;60.42;99402.56;5076440;28;20736;-63
2022/03/04 07:41:24;;;;;;;25.43;15.43;;;;;;;6.56;60.64;99399.25;5094675;28;20231;-64
2022/03/04 07:43:51;;;;;;;24.97;16.20;;;;;;;6.49;60.69;99400.13;5094949;28;20245;-64
2022/03/04 07:46:19;;;;;;;20.47;15.13;;;;;;;6.36;61.32;99402.50;5095756;28;20291;-64
2022/03/04 07:48:47;;;;;;;21.37;16.53;;;;;;;6.35;61.06;99400.84;5095152;28;20224;-64
2022/03/04 07:51:14;;;;;;;28.80;18.90;;;;;;;6.42;61.04;99396.53;5094515;28;20671;-65
2022/03/04 07:53:40;;;;;;;26.00;17.43;;;;;;;6.64;61.92;99391.31;5095306;28;20191;-64
2022/03/04 07:56:07;;;;;;;43.97;17.63;;;;;;;6.91;60.74;99404.03;5094459;28;20736;-64
2022/03/04 07:58:34;;;;;;;52.17;30.40;;;;;;;7.12;60.20;99400.72;5088247;28;20191;-65
2022/03/04 08:01:00;;;;;;;38.30;23.90;;;;;;;7.35;58.37;99409.47;5077052;28;20670;-69
2022/03/04 08:03:27;;;;;;;26.77;18.20;;;;;;;7.25;58.54;99406.22;5094430;28;20259;-65
2022/03/04 08:05:55;;;;;;;28.37;17.20;;;;;;;7.43;58.63;99404.13;5094487;28;20260;-65
2022/03/04 08:08:22;;;;;;;23.10;15.70;;;;;;;7.70;57.96;99412.28;5094590;28;20195;-65
2022/03/04 08:10:49;;;;;;;39.57;17.37;;;;;;;7.92;57.93;99405.31;5094333;28;20194;-64
2022/03/04 08:13:15;;;;;;;24.30;16.80;;;;;;;8.23;55.62;99408.63;5094349;28;20191;-65
2022/03/04 08:15:42;;;;;;;32.40;15.50;;;;;;;8.55;53.21;99411.72;5092321;28;20555;-65
2022/03/04 08:18:09;;;;;;;24.63;16.23;;;;;;;8.74;51.91;99410.31;5086608;28;20200;-65
2022/03/04 08:20:35;;;;;;;21.03;15.60;;;;;;;8.91;51.32;99414.38;5091340;28;20203;-66
2022/03/04 08:23:03;;;;;;;28.03;14.47;;;;;;;9.22;50.49;99422.81;5093166;28;20259;-64
2022/03/04 08:25:30;;;;;;;21.33;14.50;;;;;;;9.48;48.78;99418.59;5108806;28;20277;-64
2022/03/04 08:27:57;;;;;;;18.63;13.67;;;;;;;9.66;48.22;99418.13;5094638;28;20253;-64
2022/03/04 08:30:25;;;;;;;21.87;13.40;;;;;;;9.92;46.69;99416.50;5094186;28;20218;-65
2022/03/04 08:32:52;;;;;;;15.97;13.47;;;;;;;10.35;45.46;99417.22;5098623;28;20248;-65
2022/03/04 08:35:19;;;;;;;16.57;12.93;;;;;;;10.73;55.47;99383.84;5104649;28;20265;-65
2022/03/04 08:37:46;;;;;;;14.83;12.87;;;;;;;10.83;46.46;99405.56;5093686;28;20203;-62
2022/03/04 08:40:15;;;;;;;24.87;15.00;;;;;;;11.07;43.60;99412.19;5094576;28;20206;-64
2022/03/04 08:42:43;;;;;;;17.97;14.00;;;;;;;11.16;42.95;99402.97;5094631;28;20236;-64
2022/03/04 08:45:11;;;;;;;18.37;13.73;;;;;;;11.46;41.71;99402.41;5092291;28;20208;-61
2022/03/04 08:47:38;;;;;;;29.90;15.40;;;;;;;11.69;41.71;99402.88;5086831;28;20274;-63
2022/03/04 08:50:07;;;;;;;19.90;13.23;;;;;;;11.89;40.30;99398.34;5095342;28;20231;-63
2022/03/04 08:52:34;;;;;;;25.30;14.70;;;;;;;12.17;39.64;99398.91;5093503;28;20204;-63
2022/03/04 08:55:00;;;;;;;19.67;14.20;;;;;;;12.32;39.80;99399.47;5093041;28;20282;-63
2022/03/04 08:57:29;;;;;;;17.10;14.60;;;;;;;12.49;38.59;99398.00;5087632;28;20680;-64
2022/03/04 08:59:55;;;;;;;19.17;13.00;;;;;;;12.69;37.53;99382.75;5073371;28;20557;-64
2022/03/04 09:02:22;;;;;;;13.97;12.53;;;;;;;12.94;37.40;99388.97;5082355;28;20244;-64
2022/03/04 09:04:50;;;;;;;13.60;12.20;;;;;;;12.62;37.51;99376.63;5093110;28;20252;-63
2022/03/04 09:07:16;;;;;;;16.10;12.07;;;;;;;12.82;36.82;99384.53;5094034;28;20215;-64
2022/03/04 09:09:43;;;;;;;16.73;12.13;;;;;;;12.99;37.48;99383.03;5093560;28;20223;-64
2022/03/04 09:12:10;;;;;;;11.70;10.53;;;;;;;13.04;36.29;99381.38;5093229;28;20659;-65
2022/03/04 09:14:38;;;;;;;15.13;11.50;;;;;;;13.21;36.39;99377.16;5093443;28;20247;-64
2022/03/04 09:17:05;;;;;;;13.70;12.07;;;;;;;12.73;36.84;99383.97;5093063;28;20212;-64
2022/03/04 09:19:32;;;;;;;17.10;12.90;;;;;;;12.59;36.86;99371.72;5093026;28;20667;-64
2022/03/04 09:21:59;;;;;;;18.27;13.00;;;;;;;12.92;36.95;99375.06;5092706;28;20248;-65
2022/03/04 09:24:25;;;;;;;20.57;14.63;;;;;;;13.32;36.79;99371.09;5098383;28;20251;-63
2022/03/04 09:26:52;;;;;;;17.13;14.87;;;;;;;13.24;35.68;99378.56;5113957;28;20247;-65
2022/03/04 09:29:19;;;;;;;14.53;12.57;;;;;;;12.94;35.53;99370.31;5113850;28;20350;-64
2022/03/04 09:31:47;;;;;;;17.67;14.23;;;;;;;13.06;34.87;99373.97;5103927;28;20183;-66
2022/03/04 09:34:14;;;;;;;15.60;13.97;;;;;;;13.19;35.08;99379.19;5092893;28;20264;-64
2022/03/04 09:36:41;;;;;;;17.87;13.53;;;;;;;13.21;35.26;99374.50;5093337;28;20191;-63
2022/03/04 09:39:09;;;;;;;22.80;14.40;;;;;;;13.04;35.68;99378.72;5093406;28;20191;-64
2022/03/04 09:41:36;;;;;;;26.97;16.67;;;;;;;13.16;35.30;99370.84;5093164;28;20199;-64
2022/03/04 09:44:03;;;;;;;17.53;13.67;;;;;;;13.39;34.90;99371.88;5093985;28;20284;-64
2022/03/04 09:46:31;;;;;;;26.63;16.93;;;;;;;13.34;35.69;99365.56;5099931;28;20722;-65
2022/03/04 09:49:00;;;;;;;14.03;12.60;;;;;;;13.26;34.78;99369.31;5112646;28;20190;-65
2022/03/04 09:51:27;;;;;;;11.77;10.33;;;;;;;13.45;34.57;99373.69;5112907;28;20194;-64
2022/03/04 09:53:54;;;;;;;12.77;11.50;;;;;;;13.80;33.67;99369.47;5105892;28;20274;-65
2022/03/04 09:56:21;;;;;;;12.37;11.27;;;;;;;14.00;33.48;99367.44;5092521;28;20224;-64
2022/03/04 09:58:48;;;;;;;14.97;12.53;;;;;;;14.26;33.47;99364.50;5075812;28;20246;-64
2022/03/04 10:01:16;;;;;;;13.70;12.30;;;;;;;14.13;32.49;99364.63;5072066;28;20204;-65
2022/03/04 10:03:45;;;;;;;16.67;14.90;;;;;;;14.15;33.71;99354.56;5072453;28;20254;-67
2022/03/04 10:06:14;;;;;;;14.07;12.63;;;;;;;14.43;32.74;99354.06;5088564;28;20195;-67
2022/03/04 10:08:42;;;;;;;14.83;13.13;;;;;;;14.59;32.46;99348.91;5092706;28;20244;-67
2022/03/04 10:11:09;;;;;;;29.87;13.73;;;;;;;14.51;32.83;99346.56;5093058;28;20284;-67
2022/03/04 10:13:44;;;;;;;14.57;12.33;;;;;;;14.79;32.56;99337.97;5091702;28;20666;-68
2022/03/04 10:16:12;;;;;;;16.85;12.95;;;;;;;14.79;32.49;99338.75;5092039;28;20820;-67
2022/03/04 10:18:39;;;;;;;13.27;11.07;;;;;;;14.83;31.15;99355.19;5092618;28;20244;-68
2022/03/04 10:21:06;;;;;;;12.67;11.53;;;;;;;14.85;31.63;99353.91;5092180;28;20221;-68
2022/03/04 10:23:34;;;;;;;13.83;11.63;;;;;;;14.90;30.66;99343.34;5092145;28;20195;-68
2022/03/04 10:26:02;;;;;;;11.93;10.73;;;;;;;14.98;29.58;99343.03;5092148;28;20248;-68
2022/03/04 10:28:31;;;;;;;16.43;11.77;;;;;;;14.86;30.83;99338.66;5092063;28;20195;-68
2022/03/04 10:30:58;;;;;;;13.13;11.93;;;;;;;14.94;31.12;99333.84;5092205;28;20226;-67
2022/03/04 10:33:26;;;;;;;15.53;12.10;;;;;;;14.94;31.32;99333.00;5092395;28;20191;-68
2022/03/04 10:36:09;;;;;;;14.03;12.60;;;;;;;14.92;31.54;99322.56;5092360;28;20547;-68
2022/03/04 10:38:38;;;;;;;23.53;13.00;;;;;;;14.93;31.14;99323.34;5090389;28;20252;-68
2022/03/04 10:41:26;;;;;;;34.17;15.03;;;;;;;14.98;31.89;99310.94;5091919;28;20636;-68
2022/03/04 10:43:53;;;;;;;14.23;12.90;;;;;;;15.05;31.50;99317.00;5092503;28;20623;-73
2022/03/04 10:46:21;;;;;;;13.23;11.40;;;;;;;14.89;32.38;99308.81;5085159;28;20196;-71
2022/03/04 10:48:53;;;;;;;15.47;12.40;;;;;;;14.74;31.75;99313.75;5071838;28;20192;-71
2022/03/04 10:51:36;;;;;;;15.30;12.50;;;;;;;14.34;32.16;99310.78;5071583;28;20312;-67
2022/03/04 10:54:15;;;;;;;14.27;11.93;;;;;;;14.11;32.34;99301.78;5071666;28;20191;-67
2022/03/04 10:56:50;;;;;;;12.63;11.30;;;;;;;14.14;32.21;99307.50;5071763;28;20265;-68
2022/03/04 10:59:17;;;;;;;13.13;10.37;;;;;;;14.06;31.86;99310.50;5071398;28;20206;-67
2022/03/04 11:01:48;;;;;;;10.70;9.70;;;;;;;14.17;31.32;99303.59;5071783;28;20249;-67
2022/03/04 11:04:17;;;;;;;12.00;10.83;;;;;;;14.33;31.35;99295.78;5071688;28;20273;-67
2022/03/04 11:06:45;;;;;;;12.83;10.73;;;;;;;14.20;31.61;99290.59;5088581;28;20191;-68
2022/03/04 11:09:13;;;;;;;12.07;10.40;;;;;;;14.31;31.42;99297.06;5091638;28;20195;-67
2022/03/04 11:11:43;;;;;;;9.00;8.20;;;;;;;14.64;49.16;99268.03;5091576;28;20713;-66
2022/03/04 11:14:11;;;;;;;18.70;12.13;;;;;;;15.01;34.98;99285.59;5091594;28;20621;-67
2022/03/04 11:16:38;;;;;;;17.27;12.07;;;;;;;14.91;31.81;99282.66;5091891;28;20187;-67
2022/03/04 11:19:06;;;;;;;13.40;12.00;;;;;;;14.96;31.62;99280.91;5091664;28;20195;-67
2022/03/04 11:21:33;;;;;;;12.70;11.40;;;;;;;14.85;31.55;99280.88;5091316;28;20758;-67
2022/03/04 11:24:00;;;;;;;15.30;11.57;;;;;;;14.86;31.57;99269.13;5091764;28;20202;-66